Time;durP1;ratioP1;P1;durP2;ratioP2;P2;SDS_P1;SDS_P2;PMS_P1;PMS_P2;Temp;Humidity;BMP_temperature;BMP_pressure;BME280_temperature;BME280_humidity;BME280_pressure;Samples;Min_cycle;Max_cycle;Signal;HPM_P1;HPM_P2
2023/04/30 00:01:30;;;;;;;7.70;5.05;;;8.20;99.90;;;;;;6184296;23;20600;-72
2023/04/30 00:03:57;;;;;;;12.95;6.22;;;8.10;99.90;;;;;;6184921;23;20192;-73
2023/04/30 00:06:24;;;;;;;12.27;4.60;;;8.20;99.90;;;;;;6184261;23;20191;-72
2023/04/30 00:08:51;;;;;;;8.02;4.10;;;8.10;99.90;;;;;;6184591;23;20208;-72
2023/04/30 00:11:18;;;;;;;11.68;4.35;;;8.10;99.90;;;;;;6184363;23;20239;-72
2023/04/30 00:13:44;;;;;;;10.43;4.97;;;8.10;99.90;;;;;;6184789;23;20192;-72
2023/04/30 00:16:11;;;;;;;7.88;4.03;;;8.00;99.90;;;;;;6184825;23;20219;-75
2023/04/30 00:18:40;;;;;;;11.70;6.30;;;8.00;99.90;;;;;;6184505;23;20227;-72
2023/04/30 00:21:06;;;;;;;6.05;4.15;;;8.00;99.90;;;;;;6184240;23;20161;-72
2023/04/30 00:23:34;;;;;;;10.00;5.13;;;7.90;99.90;;;;;;6185007;23;20524;-73
2023/04/30 00:26:01;;;;;;;15.98;5.05;;;7.90;99.90;;;;;;6184939;23;20192;-72
2023/04/30 00:28:28;;;;;;;14.85;4.43;;;7.90;99.90;;;;;;6184651;23;20184;-72
2023/04/30 00:30:55;;;;;;;15.68;4.68;;;7.90;99.90;;;;;;6184090;23;20206;-73
2023/04/30 00:33:22;;;;;;;14.30;5.03;;;7.80;99.90;;;;;;6185359;23;20178;-72
2023/04/30 00:35:50;;;;;;;7.93;4.80;;;7.80;99.90;;;;;;6186748;23;20262;-72
2023/04/30 00:38:17;;;;;;;15.00;5.28;;;7.70;99.90;;;;;;6186626;23;20190;-72
2023/04/30 00:40:45;;;;;;;11.15;5.75;;;7.80;99.90;;;;;;6185583;23;20227;-72
2023/04/30 00:43:12;;;;;;;9.27;5.20;;;7.70;99.90;;;;;;6186346;23;20537;-73
2023/04/30 00:45:39;;;;;;;16.13;5.85;;;7.70;99.90;;;;;;6186652;23;20250;-73
2023/04/30 00:48:06;;;;;;;10.70;6.10;;;7.70;99.90;;;;;;6186048;23;20174;-74
2023/04/30 00:50:35;;;;;;;16.88;5.15;;;7.60;99.90;;;;;;6186168;23;20209;-71
2023/04/30 00:53:04;;;;;;;8.32;4.45;;;7.70;99.90;;;;;;6186684;23;20167;-73
2023/04/30 00:55:31;;;;;;;6.90;3.95;;;7.60;99.90;;;;;;6187794;23;20168;-73
2023/04/30 00:57:59;;;;;;;20.02;10.55;;;7.60;99.90;;;;;;6188183;23;20170;-70
2023/04/30 01:00:27;;;;;;;17.63;5.32;;;7.60;99.90;;;;;;6188556;23;20227;-72
2023/04/30 01:02:55;;;;;;;16.13;8.63;;;7.60;99.90;;;;;;6188466;23;20634;-72
2023/04/30 01:05:22;;;;;;;11.80;4.65;;;7.70;99.90;;;;;;6187816;23;20168;-72
2023/04/30 01:07:49;;;;;;;11.32;4.57;;;7.70;99.90;;;;;;6186796;23;20165;-73
2023/04/30 01:10:18;;;;;;;16.92;4.40;;;7.60;99.90;;;;;;6184979;23;20722;-72
2023/04/30 01:12:54;;;;;;;11.15;4.40;;;7.60;99.90;;;;;;6186186;23;20236;-71
2023/04/30 01:15:27;;;;;;;12.27;5.22;;;7.70;99.90;;;;;;6187107;23;20199;-72
2023/04/30 01:17:58;;;;;;;8.77;5.50;;;7.60;99.90;;;;;;6185892;23;20250;-72
2023/04/30 01:20:28;;;;;;;12.02;6.35;;;7.60;99.90;;;;;;6184918;23;20686;-72
2023/04/30 01:22:59;;;;;;;13.65;4.05;;;7.70;99.90;;;;;;6185939;23;20203;-73
2023/04/30 01:25:44;;;;;;;14.05;5.25;;;7.60;99.90;;;;;;6186252;23;20263;-72
2023/04/30 01:28:15;;;;;;;12.18;5.03;;;7.60;99.90;;;;;;6184713;23;20197;-73
2023/04/30 01:30:44;;;;;;;12.75;4.85;;;7.60;99.90;;;;;;6185282;23;20192;-71
2023/04/30 01:33:11;;;;;;;7.22;5.32;;;7.60;99.90;;;;;;6185762;23;20164;-71
2023/04/30 01:36:29;;;;;;;7.45;4.63;;;7.60;99.90;;;;;;6185078;23;20274;-71
2023/04/30 01:39:09;;;;;;;16.65;5.75;;;7.60;99.90;;;;;;6180823;23;20278;-71
2023/04/30 01:41:45;;;;;;;9.73;4.22;;;7.60;99.90;;;;;;6184100;23;20186;-72
2023/04/30 01:44:41;;;;;;;8.80;4.50;;;7.60;99.90;;;;;;6185828;23;20258;-74
2023/04/30 01:47:16;;;;;;;15.05;5.15;;;7.50;99.90;;;;;;6184185;23;20561;-72
2023/04/30 01:49:51;;;;;;;14.02;5.70;;;7.50;99.90;;;;;;6183574;23;20600;-71
2023/04/30 01:52:39;;;;;;;11.50;5.07;;;7.60;99.90;;;;;;6184327;23;20254;-72
2023/04/30 01:55:11;;;;;;;8.80;5.47;;;7.60;99.90;;;;;;6185304;23;20614;-73
2023/04/30 01:57:42;;;;;;;13.88;4.90;;;7.60;99.90;;;;;;6185641;23;20186;-71
2023/04/30 02:00:13;;;;;;;16.95;5.70;;;7.70;99.90;;;;;;6184876;23;20206;-72
2023/04/30 02:02:41;;;;;;;17.77;5.82;;;7.50;99.90;;;;;;6185752;23;20167;-72
2023/04/30 02:05:08;;;;;;;12.25;4.10;;;7.60;99.90;;;;;;6186088;23;20187;-71
2023/04/30 02:07:39;;;;;;;9.38;4.82;;;7.50;99.90;;;;;;6185043;23;20568;-71
2023/04/30 02:10:07;;;;;;;9.48;5.97;;;7.50;99.90;;;;;;6184773;23;20285;-72
2023/04/30 02:12:35;;;;;;;11.23;4.82;;;7.60;99.90;;;;;;6185731;23;20168;-72
2023/04/30 02:15:02;;;;;;;9.38;5.38;;;7.60;99.90;;;;;;6185493;23;20217;-71
2023/04/30 02:17:31;;;;;;;7.63;4.25;;;7.60;99.90;;;;;;6185964;23;20164;-71
2023/04/30 02:19:58;;;;;;;7.93;4.85;;;7.50;99.90;;;;;;6184661;23;20203;-73
2023/04/30 02:22:25;;;;;;;11.77;5.30;;;7.50;99.90;;;;;;6185885;23;20162;-72
2023/04/30 02:24:54;;;;;;;7.45;5.30;;;7.50;99.90;;;;;;6185328;23;20166;-72
2023/04/30 02:27:21;;;;;;;10.52;5.22;;;7.50;99.90;;;;;;6185040;23;20202;-71
2023/04/30 02:29:48;;;;;;;11.30;5.05;;;7.50;99.90;;;;;;6184321;23;20290;-71
2023/04/30 02:32:16;;;;;;;12.55;4.82;;;7.50;99.90;;;;;;6185396;23;20217;-73
2023/04/30 02:34:44;;;;;;;10.15;6.45;;;7.50;99.90;;;;;;6185754;23;20175;-73
2023/04/30 02:37:11;;;;;;;14.30;5.85;;;7.50;99.90;;;;;;6185343;23;20164;-73
2023/04/30 02:39:38;;;;;;;11.45;4.95;;;7.50;99.90;;;;;;6184886;23;20230;-72
2023/04/30 02:42:05;;;;;;;9.52;5.00;;;7.50;99.90;;;;;;6184679;23;20274;-72
2023/04/30 02:44:32;;;;;;;8.63;6.35;;;7.40;99.90;;;;;;6185475;23;20171;-73
2023/04/30 02:46:59;;;;;;;17.73;8.80;;;7.40;99.90;;;;;;6185481;23;20207;-74
2023/04/30 02:49:27;;;;;;;13.98;6.72;;;7.30;99.90;;;;;;6185188;23;20297;-72
2023/04/30 02:51:56;;;;;;;13.25;7.07;;;7.30;99.90;;;;;;6184803;23;20246;-72
2023/04/30 02:54:24;;;;;;;8.98;6.50;;;7.20;99.90;;;;;;6185198;23;20528;-72
2023/04/30 02:56:51;;;;;;;10.02;7.53;;;7.20;99.90;;;;;;6185217;23;20242;-72
2023/04/30 02:59:18;;;;;;;7.97;6.53;;;7.20;99.90;;;;;;6184921;23;20196;-71
2023/04/30 03:01:44;;;;;;;12.30;7.47;;;7.10;99.90;;;;;;6184459;23;20255;-71
2023/04/30 03:04:11;;;;;;;9.60;7.30;;;7.10;99.90;;;;;;6185553;23;20239;-71
2023/04/30 03:06:38;;;;;;;14.10;7.00;;;7.10;99.90;;;;;;6184790;23;20624;-72
2023/04/30 03:09:07;;;;;;;17.63;6.93;;;7.10;99.90;;;;;;6184502;23;20226;-71
2023/04/30 03:11:36;;;;;;;11.80;7.50;;;7.00;99.90;;;;;;6184189;23;20183;-70
2023/04/30 03:14:03;;;;;;;13.07;7.32;;;7.00;99.90;;;;;;6185074;23;20461;-71
2023/04/30 03:16:30;;;;;;;15.32;7.18;;;7.00;99.90;;;;;;6185476;23;20164;-72
2023/04/30 03:18:57;;;;;;;13.98;7.88;;;7.00;99.90;;;;;;6184957;23;20514;-72
2023/04/30 03:21:24;;;;;;;10.35;6.93;;;7.00;99.90;;;;;;6184332;23;20200;-72
2023/04/30 03:23:51;;;;;;;8.48;7.43;;;7.10;99.90;;;;;;6184674;23;20175;-71
2023/04/30 03:26:20;;;;;;;10.00;7.53;;;7.00;99.90;;;;;;6185231;23;20261;-73
2023/04/30 03:28:48;;;;;;;10.98;7.28;;;7.00;99.90;;;;;;6184280;23;20580;-71
2023/04/30 03:31:15;;;;;;;16.90;8.65;;;7.00;99.90;;;;;;6184145;23;20198;-72
2023/04/30 03:33:43;;;;;;;8.00;7.20;;;7.00;99.90;;;;;;6185683;23;20492;-73
2023/04/30 03:36:09;;;;;;;13.48;7.63;;;7.00;99.90;;;;;;6184988;23;20171;-72
2023/04/30 03:38:37;;;;;;;9.82;7.75;;;7.00;99.90;;;;;;6185196;23;20239;-72
2023/04/30 03:41:04;;;;;;;19.23;8.40;;;6.90;99.90;;;;;;6184501;23;20197;-71
2023/04/30 03:43:33;;;;;;;16.40;10.30;;;6.90;99.90;;;;;;6185658;23;20194;-71
2023/04/30 03:46:03;;;;;;;10.73;8.10;;;6.90;99.90;;;;;;6186461;23;20242;-72
2023/04/30 03:48:30;;;;;;;16.23;8.05;;;6.80;99.90;;;;;;6186448;23;20174;-72
2023/04/30 03:50:57;;;;;;;17.52;8.43;;;6.80;99.90;;;;;;6186544;23;20193;-71
2023/04/30 03:53:25;;;;;;;15.75;8.77;;;6.90;99.90;;;;;;6186630;23;20669;-72
2023/04/30 03:55:53;;;;;;;19.40;7.30;;;6.90;99.90;;;;;;6185371;23;20167;-74
2023/04/30 03:58:20;;;;;;;13.63;9.35;;;6.90;99.90;;;;;;6184822;23;20247;-73
2023/04/30 04:00:48;;;;;;;13.95;9.05;;;6.90;99.90;;;;;;6183882;23;20179;-72
2023/04/30 04:03:16;;;;;;;19.15;9.90;;;6.90;99.90;;;;;;6184586;23;20258;-71
2023/04/30 04:05:44;;;;;;;15.25;9.23;;;6.90;99.90;;;;;;6184892;23;20164;-73
2023/04/30 04:08:11;;;;;;;20.75;9.40;;;6.90;99.90;;;;;;6185274;23;20214;-72
2023/04/30 04:10:39;;;;;;;18.23;9.13;;;6.90;99.90;;;;;;6185972;23;20250;-72
2023/04/30 04:13:06;;;;;;;16.38;7.70;;;6.90;99.90;;;;;;6186934;23;20173;-74
2023/04/30 04:15:33;;;;;;;17.67;7.93;;;7.00;99.90;;;;;;6186328;23;20172;-72
2023/04/30 04:18:01;;;;;;;12.10;7.97;;;7.10;99.90;;;;;;6187191;23;20164;-72
2023/04/30 04:20:28;;;;;;;17.52;8.05;;;7.10;99.90;;;;;;6186379;23;20195;-72
2023/04/30 04:22:55;;;;;;;15.70;8.85;;;7.10;99.90;;;;;;6186591;23;20195;-73
2023/04/30 04:25:23;;;;;;;13.57;8.18;;;7.10;99.90;;;;;;6186333;23;20590;-71
2023/04/30 04:27:50;;;;;;;18.25;9.30;;;7.20;99.90;;;;;;6186638;23;20175;-71
2023/04/30 04:30:17;;;;;;;15.23;8.10;;;7.20;99.90;;;;;;6185600;23;20214;-70
2023/04/30 04:32:48;;;;;;;11.23;8.05;;;7.30;99.90;;;;;;6187323;23;20164;-75
2023/04/30 04:35:18;;;;;;;10.93;7.65;;;7.30;99.90;;;;;;6187859;23;20214;-72
2023/04/30 04:37:45;;;;;;;14.13;9.15;;;7.30;99.90;;;;;;6186484;23;20536;-71
2023/04/30 04:40:13;;;;;;;11.88;9.05;;;7.30;99.90;;;;;;6186206;23;20270;-72
2023/04/30 04:42:40;;;;;;;14.45;9.40;;;7.40;99.90;;;;;;6185991;23;20269;-73
2023/04/30 04:45:08;;;;;;;11.75;7.75;;;7.50;99.90;;;;;;6186135;23;20164;-71
2023/04/30 04:47:36;;;;;;;14.90;9.10;;;7.50;99.90;;;;;;6186599;23;20171;-71
2023/04/30 04:50:03;;;;;;;14.13;8.75;;;7.60;99.90;;;;;;6185427;23;20287;-71
2023/04/30 04:52:31;;;;;;;13.20;8.07;;;7.70;99.90;;;;;;6186768;23;20170;-73
2023/04/30 04:54:58;;;;;;;18.70;9.90;;;7.70;99.90;;;;;;6186168;23;20251;-71
2023/04/30 04:57:25;;;;;;;13.98;9.65;;;7.90;99.90;;;;;;6186500;23;20211;-72
2023/04/30 04:59:52;;;;;;;11.63;8.30;;;8.30;99.90;;;;;;6185091;23;20192;-71
2023/04/30 05:02:20;;;;;;;11.68;7.55;;;8.90;99.90;;;;;;6186874;23;20196;-72
2023/04/30 05:04:49;;;;;;;13.38;7.38;;;9.70;99.90;;;;;;6186772;23;20615;-72
2023/04/30 05:07:16;;;;;;;8.02;6.63;;;10.40;99.90;;;;;;6186019;23;20172;-72
2023/04/30 05:09:45;;;;;;;9.35;6.28;;;11.30;99.90;;;;;;6185434;23;20220;-74
2023/04/30 05:12:12;;;;;;;17.40;6.40;;;12.40;99.90;;;;;;6185967;23;20487;-72
2023/04/30 05:14:39;;;;;;;10.70;6.20;;;12.70;99.90;;;;;;6186867;23;20164;-73
2023/04/30 05:17:06;;;;;;;8.65;6.03;;;12.70;99.90;;;;;;6186539;23;20246;-72
2023/04/30 05:19:33;;;;;;;8.57;6.38;;;13.20;99.90;;;;;;6185529;23;20200;-73
2023/04/30 05:22:01;;;;;;;12.70;6.70;;;13.10;99.90;;;;;;6185949;23;20268;-71
2023/04/30 05:24:28;;;;;;;8.02;5.57;;;12.80;99.90;;;;;;6186073;23;20167;-72
2023/04/30 05:26:56;;;;;;;13.02;6.90;;;12.40;99.90;;;;;;6186411;23;20246;-71
2023/04/30 05:29:23;;;;;;;9.90;5.47;;;12.00;99.90;;;;;;6186058;23;20574;-74
2023/04/30 05:31:50;;;;;;;9.45;5.38;;;11.60;99.90;;;;;;6185557;23;20185;-74
2023/04/30 05:34:17;;;;;;;10.27;4.72;;;11.70;99.90;;;;;;6185976;23;20163;-72
2023/04/30 05:36:44;;;;;;;9.88;6.05;;;11.90;99.90;;;;;;6186053;23;20247;-70
2023/04/30 05:39:11;;;;;;;10.15;5.57;;;11.90;99.90;;;;;;6185374;23;20276;-74
2023/04/30 05:41:38;;;;;;;10.98;5.40;;;11.80;99.90;;;;;;6184970;23;20180;-72
2023/04/30 05:44:06;;;;;;;14.35;7.00;;;11.70;99.90;;;;;;6186462;23;20169;-74
2023/04/30 05:46:35;;;;;;;10.43;4.70;;;11.80;99.90;;;;;;6185351;23;20691;-72
2023/04/30 05:49:02;;;;;;;9.93;5.45;;;11.90;99.90;;;;;;6185944;23;20233;-74
2023/04/30 05:51:30;;;;;;;6.95;4.15;;;12.10;99.90;;;;;;6184669;23;20259;-73
2023/04/30 05:53:57;;;;;;;6.47;3.80;;;12.20;99.90;;;;;;6185872;23;20171;-74
2023/04/30 05:56:25;;;;;;;9.27;5.07;;;12.80;99.90;;;;;;6185515;23;20230;-74
2023/04/30 05:58:52;;;;;;;7.85;4.20;;;13.60;99.90;;;;;;6186248;23;20196;-75
2023/04/30 06:01:21;;;;;;;7.35;3.50;;;14.20;98.90;;;;;;6185223;23;20164;-73
2023/04/30 06:03:47;;;;;;;7.90;3.75;;;14.50;96.50;;;;;;6186352;23;20200;-73
2023/04/30 06:06:14;;;;;;;8.63;4.27;;;15.10;95.40;;;;;;6185645;23;20248;-73
2023/04/30 06:08:44;;;;;;;7.80;3.90;;;15.50;94.70;;;;;;6185677;23;20430;-73
2023/04/30 06:11:12;;;;;;;10.20;4.17;;;15.80;93.20;;;;;;6185662;23;20821;-74
2023/04/30 06:13:39;;;;;;;7.27;3.50;;;17.00;92.50;;;;;;6185395;23;20404;-72
2023/04/30 06:16:07;;;;;;;10.13;4.93;;;18.10;88.80;;;;;;6185686;23;20409;-73
2023/04/30 06:18:35;;;;;;;6.63;3.73;;;18.80;85.90;;;;;;6185203;23;20471;-73
2023/04/30 06:21:02;;;;;;;5.77;3.80;;;18.50;84.30;;;;;;6185389;23;20419;-72
2023/04/30 06:23:29;;;;;;;7.17;4.10;;;18.40;84.00;;;;;;6185677;23;20392;-73
2023/04/30 06:25:56;;;;;;;6.33;4.00;;;18.40;83.50;;;;;;6186132;23;20762;-73
2023/04/30 06:28:23;;;;;;;6.40;3.70;;;18.90;82.90;;;;;;6185515;23;20428;-73
2023/04/30 06:30:50;;;;;;;7.97;3.30;;;19.50;79.60;;;;;;6184280;23;20525;-73
2023/04/30 06:33:17;;;;;;;7.30;3.30;;;20.00;78.00;;;;;;6185722;23;20384;-76
2023/04/30 06:35:46;;;;;;;7.40;3.70;;;20.70;75.50;;;;;;6185416;23;20867;-77
2023/04/30 06:38:13;;;;;;;7.63;3.37;;;21.40;74.00;;;;;;6186095;23;20458;-77
2023/04/30 06:40:40;;;;;;;6.93;3.50;;;21.80;72.40;;;;;;6184960;23;20451;-77
2023/04/30 06:43:07;;;;;;;4.70;3.70;;;22.00;71.80;;;;;;6185639;23;20777;-75
2023/04/30 06:45:34;;;;;;;6.40;2.83;;;22.60;69.70;;;;;;6185872;23;20416;-76
2023/04/30 06:48:01;;;;;;;8.83;4.60;;;23.10;67.60;;;;;;6185551;23;20721;-75
2023/04/30 06:50:28;;;;;;;6.43;3.90;;;23.00;66.70;;;;;;6185026;23;20447;-75
2023/04/30 06:52:57;;;;;;;5.90;3.20;;;23.50;67.90;;;;;;6186528;23;20419;-77
2023/04/30 06:55:25;;;;;;;3.80;2.63;;;23.80;66.40;;;;;;6186071;23;20428;-77
2023/04/30 06:57:53;;;;;;;6.03;2.80;;;23.60;62.00;;;;;;6185278;23;20812;-79
2023/04/30 07:00:20;;;;;;;4.33;2.63;;;23.80;62.90;;;;;;6184910;23;20435;-77
2023/04/30 07:02:50;;;;;;;10.83;2.90;;;23.90;63.80;;;;;;6186088;23;20396;-76
2023/04/30 07:05:17;;;;;;;9.90;3.67;;;24.10;62.20;;;;;;6185531;23;20431;-74
2023/04/30 07:07:44;;;;;;;4.40;2.30;;;24.10;61.70;;;;;;6185283;23;20428;-75
2023/04/30 07:10:13;;;;;;;8.80;3.43;;;24.80;60.50;;;;;;6184619;23;20502;-77
2023/04/30 07:12:41;;;;;;;5.43;2.80;;;24.80;58.80;;;;;;6185884;23;20398;-77
2023/04/30 07:15:09;;;;;;;7.50;3.40;;;24.30;59.10;;;;;;6185483;23;20466;-76
2023/04/30 07:17:42;;;;;;;5.47;2.53;;;24.40;60.30;;;;;;6185770;23;20396;-75
2023/04/30 07:20:10;;;;;;;6.87;3.50;;;24.90;57.80;;;;;;6185360;23;20514;-76
2023/04/30 07:22:37;;;;;;;6.37;2.80;;;26.00;57.80;;;;;;6187690;23;20384;-74
2023/04/30 07:25:04;;;;;;;5.43;3.53;;;25.80;56.60;;;;;;6190182;23;20423;-74
2023/04/30 07:27:34;;;;;;;8.80;3.50;;;25.20;57.10;;;;;;6190390;23;20428;-73
2023/04/30 07:30:03;;;;;;;5.97;2.73;;;23.80;57.10;;;;;;6190113;23;20424;-73
2023/04/30 07:32:29;;;;;;;10.10;3.63;;;22.20;59.60;;;;;;6190501;23;20482;-72
2023/04/30 07:34:56;;;;;;;5.93;2.83;;;20.80;60.70;;;;;;6190347;23;20937;-71
2023/04/30 07:37:23;;;;;;;6.13;3.10;;;19.50;63.40;;;;;;6186415;23;20428;-71
2023/04/30 07:39:52;;;;;;;16.70;3.30;;;18.60;70.00;;;;;;6186032;23;20467;-71
2023/04/30 07:42:21;;;;;;;10.40;3.70;;;18.00;69.50;;;;;;6187656;23;20427;-72
2023/04/30 07:44:56;;;;;;;6.60;4.00;;;17.60;69.30;;;;;;6187622;23;20402;-71
2023/04/30 07:47:24;;;;;;;28.70;21.27;;;17.20;70.50;;;;;;6186771;23;20422;-72
2023/04/30 07:49:52;;;;;;;7.00;3.40;;;17.40;71.10;;;;;;6185890;23;20510;-72
2023/04/30 07:52:19;;;;;;;7.27;2.53;;;17.90;71.40;;;;;;6187439;23;20510;-72
2023/04/30 07:54:45;;;;;;;6.90;2.73;;;17.90;70.40;;;;;;6188143;23;20915;-73
2023/04/30 07:57:12;;;;;;;4.70;2.60;;;17.70;71.60;;;;;;6187974;23;20487;-74
2023/04/30 07:59:39;;;;;;;8.23;3.17;;;17.90;71.30;;;;;;6186023;23;20435;-71
2023/04/30 08:02:08;;;;;;;7.30;3.27;;;18.20;70.70;;;;;;6186466;23;20384;-73
2023/04/30 08:04:35;;;;;;;5.37;2.90;;;18.70;70.70;;;;;;6186544;23;20474;-71
2023/04/30 08:07:03;;;;;;;8.73;3.60;;;19.30;68.70;;;;;;6186911;23;20408;-75
2023/04/30 08:09:30;;;;;;;5.93;2.70;;;20.00;69.30;;;;;;6185482;23;20529;-72
2023/04/30 08:11:57;;;;;;;4.20;2.93;;;20.90;67.10;;;;;;6186060;23;20735;-73
2023/04/30 08:14:24;;;;;;;3.37;2.57;;;21.60;64.40;;;;;;6187186;23;20432;-72
2023/04/30 08:16:51;;;;;;;5.93;2.40;;;22.20;63.20;;;;;;6186931;23;20392;-72
2023/04/30 08:19:19;;;;;;;6.03;2.60;;;22.50;62.10;;;;;;6186177;23;20753;-73
2023/04/30 08:21:46;;;;;;;9.03;3.57;;;23.50;61.50;;;;;;6186622;23;20471;-71
2023/04/30 08:24:13;;;;;;;4.33;2.53;;;24.10;59.70;;;;;;6187038;23;20442;-73
2023/04/30 08:26:40;;;;;;;7.73;3.60;;;24.60;58.30;;;;;;6186958;23;20402;-73
2023/04/30 08:29:07;;;;;;;6.37;2.90;;;24.90;58.40;;;;;;6186697;23;20531;-73
2023/04/30 08:31:34;;;;;;;6.93;3.57;;;24.40;57.80;;;;;;6186291;23;20427;-73
2023/04/30 08:34:01;;;;;;;4.47;2.37;;;23.50;57.60;;;;;;6186890;23;20479;-73
2023/04/30 08:36:29;;;;;;;6.30;2.80;;;23.70;57.50;;;;;;6186092;23;20408;-71
2023/04/30 08:38:56;;;;;;;4.33;2.43;;;23.90;57.90;;;;;;6186432;23;20459;-72
2023/04/30 08:41:27;;;;;;;5.10;2.87;;;24.60;57.20;;;;;;6185152;23;20411;-73
2023/04/30 08:43:55;;;;;;;8.37;3.57;;;24.90;57.40;;;;;;6186140;23;20403;-71
2023/04/30 08:46:25;;;;;;;4.17;2.70;;;25.10;56.80;;;;;;6186509;23;20878;-73
2023/04/30 08:48:53;;;;;;;7.33;4.03;;;25.40;55.80;;;;;;6185513;23;21011;-73
2023/04/30 08:51:20;;;;;;;7.87;3.70;;;25.30;55.90;;;;;;6185880;23;20791;-71
2023/04/30 08:53:50;;;;;;;6.47;3.50;;;25.30;56.00;;;;;;6186349;23;20410;-74
2023/04/30 08:56:17;;;;;;;8.00;3.17;;;24.90;55.40;;;;;;6186105;23;20392;-72
2023/04/30 08:58:43;;;;;;;3.87;2.40;;;24.50;56.70;;;;;;6186023;23;20819;-73
2023/04/30 09:01:10;;;;;;;4.30;2.90;;;24.20;56.10;;;;;;6185633;23;20420;-73
2023/04/30 09:03:38;;;;;;;5.57;3.10;;;23.30;55.50;;;;;;6186572;23;20388;-74
2023/04/30 09:06:05;;;;;;;6.43;2.70;;;23.40;56.20;;;;;;6186072;23;20400;-72
2023/04/30 09:08:42;;;;;;;6.43;3.43;;;23.70;56.60;;;;;;6185813;23;20380;-71
2023/04/30 09:11:23;;;;;;;6.80;2.97;;;23.80;56.40;;;;;;6185738;23;20427;-74
2023/04/30 09:13:51;;;;;;;5.57;2.70;;;23.00;56.50;;;;;;6186907;23;20391;-76
2023/04/30 09:16:20;;;;;;;4.40;3.07;;;22.10;56.80;;;;;;6186549;23;20392;-73
2023/04/30 09:18:48;;;;;;;6.17;3.10;;;22.00;58.20;;;;;;6190033;23;20503;-72
2023/04/30 09:21:15;;;;;;;7.60;2.87;;;22.00;57.80;;;;;;6186064;23;20412;-73
2023/04/30 09:23:55;;;;;;;7.17;2.80;;;22.60;58.40;;;;;;6185912;23;20403;-73
2023/04/30 09:26:28;;;;;;;4.00;2.27;;;23.20;55.60;;;;;;6186748;23;20718;-73
2023/04/30 09:28:56;;;;;;;5.40;2.73;;;23.20;55.60;;;;;;6185811;23;20423;-69
2023/04/30 09:31:24;;;;;;;4.90;3.23;;;22.70;55.70;;;;;;6185320;23;20748;-71
2023/04/30 09:33:52;;;;;;;4.33;2.20;;;22.70;58.60;;;;;;6185699;23;20395;-73
2023/04/30 09:36:19;;;;;;;5.00;2.27;;;23.30;56.70;;;;;;6185485;23;20446;-71
2023/04/30 09:38:46;;;;;;;7.40;3.17;;;23.40;54.90;;;;;;6184529;23;20439;-72
2023/04/30 09:41:26;;;;;;;5.40;3.30;;;23.40;55.60;;;;;;6184568;23;20447;-73
2023/04/30 09:43:53;;;;;;;7.10;3.07;;;23.20;55.20;;;;;;6186208;23;20483;-75
2023/04/30 09:46:21;;;;;;;6.03;2.93;;;23.30;55.80;;;;;;6184864;23;20480;-71
2023/04/30 09:48:57;;;;;;;8.90;3.13;;;23.00;55.50;;;;;;6185682;23;20439;-74
2023/04/30 09:51:24;;;;;;;5.33;2.70;;;22.50;56.00;;;;;;6184192;23;20926;-72
2023/04/30 09:53:53;;;;;;;11.30;3.00;;;22.00;56.20;;;;;;6185934;23;20479;-74
2023/04/30 09:56:22;;;;;;;10.53;3.50;;;21.20;56.90;;;;;;6185717;23;20419;-76
2023/04/30 09:58:53;;;;;;;7.60;3.87;;;20.20;59.50;;;;;;6185533;23;20431;-73
2023/04/30 10:01:21;;;;;;;11.03;3.50;;;20.10;60.80;;;;;;6184707;23;20434;-73
2023/04/30 10:03:49;;;;;;;5.60;4.23;;;21.10;61.70;;;;;;6184877;23;20407;-74
2023/04/30 10:06:17;;;;;;;5.70;3.10;;;22.00;59.70;;;;;;6185244;23;20486;-72
2023/04/30 10:08:47;;;;;;;6.90;3.67;;;22.10;57.50;;;;;;6185153;23;20427;-73
2023/04/30 10:11:18;;;;;;;5.23;2.70;;;22.20;57.70;;;;;;6184850;23;20424;-73
2023/04/30 10:13:55;;;;;;;3.50;2.47;;;21.70;59.30;;;;;;6185418;23;20391;-73
2023/04/30 10:16:34;;;;;;;5.80;3.67;;;21.80;60.60;;;;;;6186014;23;20840;-71
2023/04/30 10:19:08;;;;;;;10.13;2.97;;;22.10;58.80;;;;;;6184058;23;20428;-72
2023/04/30 10:21:38;;;;;;;9.30;4.70;;;22.20;58.90;;;;;;6158582;23;20741;-72
2023/04/30 10:24:06;;;;;;;6.03;2.80;;;22.00;59.10;;;;;;6186070;23;20475;-74
2023/04/30 10:26:33;;;;;;;6.30;3.40;;;22.20;59.20;;;;;;6186534;23;20431;-72
2023/04/30 10:29:03;;;;;;;6.50;2.93;;;22.10;59.20;;;;;;6186551;23;20993;-72
2023/04/30 10:31:31;;;;;;;4.60;2.97;;;22.30;59.30;;;;;;6186459;23;20907;-74
2023/04/30 10:34:06;;;;;;;5.87;3.37;;;22.30;59.00;;;;;;6186915;23;20470;-73
2023/04/30 10:36:39;;;;;;;5.50;2.80;;;21.60;58.20;;;;;;6185684;23;20941;-72
2023/04/30 10:39:08;;;;;;;9.73;3.30;;;20.80;60.10;;;;;;6185624;23;20424;-74
2023/04/30 10:41:35;;;;;;;5.70;3.10;;;20.40;62.90;;;;;;6185069;23;20419;-72
2023/04/30 10:44:05;;;;;;;6.37;3.20;;;19.80;61.30;;;;;;6185665;23;20474;-73
2023/04/30 10:46:34;;;;;;;11.13;3.53;;;19.50;64.40;;;;;;6184478;23;20966;-72
2023/04/30 10:49:01;;;;;;;5.77;3.50;;;18.80;64.20;;;;;;6185618;23;20495;-71
2023/04/30 10:51:50;;;;;;;7.60;3.23;;;18.20;65.70;;;;;;6185107;23;20450;-74
2023/04/30 10:54:24;;;;;;;6.20;2.90;;;18.20;65.30;;;;;;6185884;23;20419;-72
2023/04/30 10:56:51;;;;;;;5.73;3.17;;;17.90;65.50;;;;;;6185492;23;20394;-73
2023/04/30 10:59:20;;;;;;;5.17;3.87;;;18.20;68.20;;;;;;6185324;23;20538;-73
2023/04/30 11:01:58;;;;;;;10.20;3.67;;;18.20;68.00;;;;;;6188857;23;20416;-73
2023/04/30 11:04:25;;;;;;;4.40;3.20;;;18.20;68.10;;;;;;6185810;23;20411;-72
2023/04/30 11:07:07;;;;;;;5.70;3.10;;;18.10;67.40;;;;;;6185321;23;20399;-73
2023/04/30 11:09:41;;;;;;;5.83;3.30;;;17.80;68.10;;;;;;6184685;23;20430;-73
2023/04/30 11:12:13;;;;;;;4.10;3.23;;;17.60;68.60;;;;;;6185286;23;20478;-72
2023/04/30 11:14:45;;;;;;;5.80;3.00;;;17.60;70.60;;;;;;6185307;23;20479;-74
2023/04/30 11:17:13;;;;;;;3.50;2.70;;;17.60;70.80;;;;;;6184715;23;20734;-71
2023/04/30 11:19:48;;;;;;;6.27;3.37;;;17.60;69.70;;;;;;6184346;23;20945;-73
2023/04/30 11:22:35;;;;;;;5.00;3.40;;;17.60;69.60;;;;;;6185246;23;20729;-70
2023/04/30 11:25:08;;;;;;;6.97;2.90;;;17.70;69.20;;;;;;6184906;23;20876;-72
2023/04/30 11:27:36;;;;;;;6.13;3.17;;;17.50;69.80;;;;;;6185765;23;20391;-72
2023/04/30 11:30:11;;;;;;;5.50;3.10;;;17.40;69.80;;;;;;6184797;23;20466;-72
2023/04/30 11:32:39;;;;;;;5.77;3.13;;;17.20;70.00;;;;;;6186103;23;20433;-71
2023/04/30 11:35:07;;;;;;;6.23;3.33;;;17.10;70.30;;;;;;6186894;23;20402;-70
2023/04/30 11:37:36;;;;;;;4.13;2.90;;;16.90;70.80;;;;;;6186211;23;20400;-72
2023/04/30 11:40:06;;;;;;;4.90;2.73;;;16.60;71.20;;;;;;6186058;23;20442;-71
2023/04/30 11:42:34;;;;;;;5.43;3.17;;;16.70;71.90;;;;;;6185749;23;20422;-73
2023/04/30 11:45:07;;;;;;;10.77;5.00;;;16.80;73.10;;;;;;6185535;23;20392;-73
2023/04/30 11:47:42;;;;;;;8.43;3.37;;;16.90;73.00;;;;;;6185413;23;20399;-71
2023/04/30 11:50:10;;;;;;;5.23;2.83;;;17.00;73.30;;;;;;6185113;23;20489;-71
2023/04/30 11:52:38;;;;;;;6.77;3.37;;;16.90;71.60;;;;;;6186215;23;20473;-73
2023/04/30 11:55:13;;;;;;;4.90;3.03;;;16.80;72.30;;;;;;6185830;23;20441;-73
2023/04/30 11:57:41;;;;;;;6.27;3.20;;;16.90;73.30;;;;;;6186983;23;20392;-70
2023/04/30 12:00:13;;;;;;;5.63;2.80;;;16.90;73.70;;;;;;6184819;23;20443;-72
2023/04/30 12:02:40;;;;;;;4.23;2.97;;;16.80;72.90;;;;;;6184737;23;20396;-72
2023/04/30 12:05:16;;;;;;;4.30;3.22;;;16.70;73.80;;;;;;6184720;23;20394;-72
2023/04/30 12:07:49;;;;;;;5.13;3.27;;;16.60;73.90;;;;;;6184842;23;20194;-72
2023/04/30 12:10:18;;;;;;;8.33;2.93;;;16.50;73.00;;;;;;6184053;23;20469;-75
2023/04/30 12:12:45;;;;;;;7.30;3.37;;;16.50;74.30;;;;;;6184361;23;20438;-73
2023/04/30 12:15:17;;;;;;;7.28;5.78;;;16.40;74.30;;;;;;6184603;23;20398;-72
2023/04/30 12:17:45;;;;;;;8.33;3.50;;;16.10;75.40;;;;;;6184947;23;20201;-72
2023/04/30 12:20:13;;;;;;;6.72;3.30;;;16.00;75.70;;;;;;6183581;23;20434;-74
2023/04/30 12:22:40;;;;;;;3.80;3.15;;;15.80;75.90;;;;;;6184754;23;20595;-73
2023/04/30 12:25:12;;;;;;;5.93;3.10;;;16.00;76.90;;;;;;6184731;23;20175;-75
2023/04/30 12:27:40;;;;;;;4.97;2.43;;;16.10;77.30;;;;;;6184243;23;20469;-72
2023/04/30 12:30:08;;;;;;;5.17;3.03;;;16.30;76.40;;;;;;6184636;23;20422;-73
2023/04/30 12:32:41;;;;;;;3.90;2.97;;;16.50;76.30;;;;;;6186667;23;20801;-73
2023/04/30 12:35:14;;;;;;;5.17;2.80;;;16.70;75.70;;;;;;6185870;23;20431;-71
2023/04/30 12:37:45;;;;;;;6.63;3.30;;;16.90;74.80;;;;;;6185995;23;20477;-72
2023/04/30 12:40:13;;;;;;;5.60;2.87;;;17.10;74.70;;;;;;6185980;23;20509;-72
2023/04/30 12:42:42;;;;;;;7.95;3.17;;;17.10;74.70;;;;;;6185895;23;20418;-72
2023/04/30 12:45:11;;;;;;;4.70;2.80;;;17.10;75.00;;;;;;6186139;23;20607;-74
2023/04/30 12:47:43;;;;;;;26.33;17.93;;;17.00;74.70;;;;;;6186210;23;20391;-73
2023/04/30 12:50:12;;;;;;;4.17;3.70;;;17.10;80.40;;;;;;6185546;23;20506;-73
2023/04/30 12:52:40;;;;;;;15.50;10.27;;;17.10;77.70;;;;;;6186176;23;20474;-73
2023/04/30 12:55:17;;;;;;;19.10;9.33;;;17.10;77.90;;;;;;6186524;23;20479;-74